createdAt,value
2022-11-17T00:01:30.179Z,11.43
2022-11-17T00:06:32.359Z,12.05
2022-11-17T00:11:54.428Z,11.15
2022-11-17T00:21:58.429Z,12.98
2022-11-17T00:27:03.774Z,7.70
2022-11-17T00:32:25.222Z,10.50
2022-11-17T00:37:29.002Z,10.40
2022-11-17T00:42:31.107Z,8.13
2022-11-17T00:47:36.197Z,12.63
2022-11-17T00:52:38.259Z,10.27
2022-11-17T00:57:40.333Z,9.07
2022-11-17T01:02:42.447Z,8.65
2022-11-17T01:07:44.748Z,9.48
2022-11-17T01:12:46.900Z,9.35
2022-11-17T01:17:48.937Z,11.85
2022-11-17T01:22:51.082Z,13.95
2022-11-17T01:27:53.319Z,11.85
2022-11-17T01:32:55.538Z,9.65
2022-11-17T01:37:57.648Z,11.45
2022-11-17T01:42:59.759Z,10.45
2022-11-17T01:48:06.074Z,9.40
2022-11-17T01:53:15.732Z,12.65
2022-11-17T01:58:31.258Z,11.90
2022-11-17T02:03:35.339Z,10.80
2022-11-17T02:08:40.256Z,13.38
2022-11-17T02:13:42.486Z,12.45
2022-11-17T02:18:46.915Z,11.45
2022-11-17T02:24:10.835Z,14.68
2022-11-17T02:29:21.877Z,9.95
2022-11-17T02:34:33.205Z,11.30
2022-11-17T02:40:01.126Z,12.32
2022-11-17T02:45:05.560Z,14.55
2022-11-17T02:50:10.510Z,13.20
2022-11-17T02:55:12.594Z,13.13
2022-11-17T03:00:17.802Z,14.40
2022-11-17T03:05:51.927Z,13.73
2022-11-17T03:11:04.163Z,14.60
2022-11-17T03:16:48.895Z,12.27
2022-11-17T03:22:35.879Z,14.07
2022-11-17T03:27:42.817Z,15.60
2022-11-17T03:32:51.778Z,12.93
2022-11-17T03:38:03.056Z,13.55
2022-11-17T03:43:07.920Z,11.63
2022-11-17T03:48:20.288Z,14.48
2022-11-17T03:53:22.949Z,15.13
2022-11-17T03:58:30.077Z,14.90
2022-11-17T04:03:34.301Z,16.30
2022-11-17T04:08:36.892Z,12.65
2022-11-17T04:13:57.849Z,12.48
2022-11-17T04:18:59.900Z,13.45
2022-11-17T04:24:01.908Z,14.90
2022-11-17T04:29:04.059Z,20.58
2022-11-17T04:34:06.563Z,14.75
2022-11-17T04:39:09.457Z,19.48
2022-11-17T04:44:13.951Z,13.85
2022-11-17T04:49:18.020Z,20.27
2022-11-17T04:54:24.738Z,17.60
2022-11-17T04:59:26.997Z,17.58
2022-11-17T05:04:55.303Z,18.60
2022-11-17T05:09:57.370Z,15.50
2022-11-17T05:14:59.439Z,18.30
2022-11-17T05:20:01.582Z,17.50
2022-11-17T05:25:06.109Z,16.75
2022-11-17T05:30:09.077Z,24.65
2022-11-17T05:35:11.141Z,19.15
2022-11-17T05:40:13.298Z,19.42
2022-11-17T05:45:15.434Z,22.30
2022-11-17T05:50:19.290Z,22.23
2022-11-17T05:55:21.407Z,22.58
2022-11-17T06:00:23.562Z,23.00
2022-11-17T06:05:26.000Z,16.08
2022-11-17T06:10:28.079Z,20.73
2022-11-17T06:15:30.312Z,22.98
2022-11-17T06:20:38.611Z,18.25
2022-11-17T06:25:40.969Z,20.95
2022-11-17T06:30:43.925Z,20.38
2022-11-17T06:35:47.238Z,20.95
2022-11-17T06:40:49.282Z,19.35
2022-11-17T06:45:51.425Z,14.90
2022-11-17T06:50:55.062Z,19.50
2022-11-17T06:56:09.217Z,17.35
2022-11-17T07:01:15.443Z,17.92
2022-11-17T07:06:19.178Z,20.25
2022-11-17T07:11:21.354Z,22.30
2022-11-17T07:16:24.157Z,14.38
2022-11-17T07:21:26.545Z,14.48
2022-11-17T07:26:28.849Z,17.17
2022-11-17T07:31:32.111Z,15.60
2022-11-17T07:36:34.358Z,16.35
2022-11-17T07:41:36.596Z,12.38
2022-11-17T07:46:38.717Z,17.27
2022-11-17T07:51:40.923Z,14.32
2022-11-17T07:56:43.123Z,13.25
2022-11-17T08:01:45.221Z,13.30
2022-11-17T08:06:47.424Z,12.98
2022-11-17T08:11:51.874Z,12.55
2022-11-17T08:16:54.109Z,11.65
2022-11-17T08:21:57.256Z,10.60
2022-11-17T08:26:59.405Z,13.18
2022-11-17T08:32:01.473Z,16.30
2022-11-17T08:37:03.620Z,14.40
2022-11-17T08:42:05.880Z,13.00
2022-11-17T08:47:08.047Z,17.85
2022-11-17T08:52:10.224Z,14.60
2022-11-17T08:57:12.400Z,17.25
2022-11-17T09:02:14.832Z,13.82
2022-11-17T09:07:17.120Z,13.30
2022-11-17T09:12:19.495Z,16.38
2022-11-17T09:17:21.767Z,10.18
2022-11-17T09:22:24.004Z,11.13
2022-11-17T09:27:26.066Z,9.88
2022-11-17T09:32:29.279Z,9.60
2022-11-17T09:37:31.373Z,9.73
2022-11-17T09:42:39.420Z,8.77
2022-11-17T09:47:51.506Z,9.05
2022-11-17T09:53:21.999Z,6.85
2022-11-17T09:58:42.329Z,8.02
2022-11-17T10:03:47.365Z,5.35
2022-11-17T10:09:01.565Z,4.75
2022-11-17T10:14:15.976Z,6.57
2022-11-17T10:19:22.786Z,6.45
2022-11-17T10:24:46.552Z,3.00
2022-11-17T10:30:19.748Z,3.75
2022-11-17T10:35:30.809Z,5.20
2022-11-17T10:40:48.710Z,9.73
2022-11-17T10:46:00.708Z,4.75
2022-11-17T10:51:11.518Z,4.63
2022-11-17T10:56:18.142Z,4.25
2022-11-17T11:01:33.033Z,7.57
2022-11-17T11:06:35.602Z,6.00
2022-11-17T11:11:48.910Z,5.25
2022-11-17T11:16:51.449Z,4.70
2022-11-17T11:22:21.005Z,7.13
2022-11-17T11:27:44.510Z,5.00
2022-11-17T11:32:52.669Z,5.20
2022-11-17T11:38:16.345Z,6.32
2022-11-17T11:43:53.051Z,4.07
2022-11-17T11:48:58.864Z,5.15
2022-11-17T11:54:15.220Z,5.93
2022-11-17T11:59:26.457Z,9.05
2022-11-17T12:05:09.879Z,5.03
2022-11-17T12:10:47.372Z,5.18
2022-11-17T12:15:49.750Z,4.97
2022-11-17T12:20:54.105Z,5.72
2022-11-17T12:25:58.091Z,4.28
2022-11-17T12:31:11.388Z,5.15
2022-11-17T12:36:32.581Z,4.95
2022-11-17T12:41:49.985Z,4.28
2022-11-17T12:47:00.706Z,8.65
2022-11-17T12:52:07.073Z,4.15
2022-11-17T12:57:17.055Z,5.65
2022-11-17T13:02:42.200Z,3.95
2022-11-17T13:07:44.578Z,3.33
2022-11-17T13:12:46.623Z,3.20
2022-11-17T13:17:49.641Z,8.05
2022-11-17T13:23:18.379Z,4.05
2022-11-17T13:28:28.537Z,4.72
2022-11-17T13:33:33.273Z,5.30
2022-11-17T13:38:37.602Z,5.22
2022-11-17T13:43:40.336Z,4.72
2022-11-17T13:48:47.189Z,4.15
2022-11-17T13:54:11.021Z,5.85
2022-11-17T13:59:26.968Z,5.93
2022-11-17T14:04:29.155Z,3.40
2022-11-17T14:09:34.531Z,5.60
2022-11-17T14:14:44.319Z,3.28
2022-11-17T14:19:47.097Z,4.95
2022-11-17T14:24:49.170Z,4.03
2022-11-17T14:29:51.173Z,5.65
2022-11-17T14:34:53.309Z,5.88
2022-11-17T14:39:55.355Z,2.90
2022-11-17T14:44:57.411Z,6.55
2022-11-17T14:49:59.440Z,4.28
2022-11-17T14:55:01.411Z,4.07
2022-11-17T15:00:07.680Z,9.05
2022-11-17T15:05:10.047Z,4.18
2022-11-17T15:10:12.624Z,3.42
2022-11-17T15:15:15.020Z,4.45
2022-11-17T15:20:17.713Z,6.10
2022-11-17T15:25:19.695Z,5.88
2022-11-17T15:30:21.743Z,3.95
2022-11-17T15:35:24.685Z,6.72
2022-11-17T15:40:26.781Z,9.15
2022-11-17T15:45:28.938Z,4.97
2022-11-17T15:50:31.020Z,4.60
2022-11-17T15:55:35.386Z,4.55
2022-11-17T16:00:40.309Z,4.40
2022-11-17T16:05:42.367Z,5.57
2022-11-17T16:10:44.378Z,4.63
2022-11-17T16:15:50.394Z,4.57
2022-11-17T16:20:52.698Z,5.03
2022-11-17T16:25:55.045Z,6.05
2022-11-17T16:30:57.049Z,5.50
2022-11-17T16:36:05.505Z,3.70
2022-11-17T16:41:08.638Z,4.57
2022-11-17T16:46:30.982Z,6.03
2022-11-17T16:51:33.707Z,5.82
2022-11-17T16:56:35.670Z,6.15
2022-11-17T17:01:38.022Z,3.58
2022-11-17T17:06:42.446Z,5.00
2022-11-17T17:11:44.502Z,4.45
2022-11-17T17:16:46.588Z,4.93
2022-11-17T17:21:48.618Z,4.68
2022-11-17T17:26:50.735Z,4.35
2022-11-17T17:31:52.823Z,10.40
2022-11-17T17:36:54.914Z,8.75
2022-11-17T17:41:56.934Z,3.55
2022-11-17T17:46:59.043Z,4.57
2022-11-17T17:52:01.164Z,4.32
2022-11-17T17:57:03.301Z,3.70
2022-11-17T18:02:05.351Z,3.70
2022-11-17T18:07:07.348Z,4.35
2022-11-17T18:12:09.709Z,5.53
2022-11-17T18:17:11.771Z,3.67
2022-11-17T18:22:13.797Z,4.72
2022-11-17T18:27:16.296Z,4.90
2022-11-17T18:32:19.713Z,4.10
2022-11-17T18:37:21.777Z,5.13
2022-11-17T18:42:23.891Z,4.88
2022-11-17T18:47:26.962Z,5.18
2022-11-17T18:52:31.508Z,5.32
2022-11-17T18:57:33.763Z,4.90
2022-11-17T19:02:35.756Z,5.22
2022-11-17T19:07:37.876Z,5.32
2022-11-17T19:12:40.034Z,4.57
2022-11-17T19:17:42.089Z,3.77
2022-11-17T19:22:44.729Z,5.30
2022-11-17T19:27:46.856Z,6.97
2022-11-17T19:32:48.816Z,5.45
2022-11-17T19:37:50.876Z,4.93
2022-11-17T19:42:52.863Z,5.40
2022-11-17T19:47:54.915Z,10.88
2022-11-17T19:52:57.073Z,5.50
2022-11-17T19:57:59.209Z,5.63
2022-11-17T20:03:01.972Z,7.90
2022-11-17T20:08:04.171Z,5.85
2022-11-17T20:13:06.187Z,5.05
2022-11-17T20:18:08.174Z,17.13
2022-11-17T20:23:10.224Z,5.60
2022-11-17T20:28:12.468Z,5.30
2022-11-17T20:33:14.485Z,3.97
2022-11-17T20:38:16.520Z,5.75
2022-11-17T20:43:18.684Z,4.18
2022-11-17T20:48:21.847Z,6.38
2022-11-17T20:53:24.485Z,4.53
2022-11-17T20:58:27.782Z,6.18
2022-11-17T21:03:29.813Z,7.15
2022-11-17T21:08:34.684Z,5.47
2022-11-17T21:13:37.818Z,6.65
2022-11-17T21:18:46.154Z,6.68
2022-11-17T21:23:48.270Z,6.35
2022-11-17T21:28:50.817Z,4.82
2022-11-17T21:33:59.164Z,5.72
2022-11-17T21:39:01.490Z,4.78
2022-11-17T21:44:03.972Z,5.93
2022-11-17T21:49:06.045Z,6.97
2022-11-17T21:54:10.026Z,4.88
2022-11-17T21:59:13.240Z,5.05
2022-11-17T22:04:15.976Z,6.97
2022-11-17T22:09:18.361Z,5.38
2022-11-17T22:14:20.755Z,7.93
2022-11-17T22:19:26.644Z,5.00
2022-11-17T22:24:28.815Z,6.47
2022-11-17T22:29:31.026Z,7.97
2022-11-17T22:34:33.544Z,6.20
2022-11-17T22:39:35.659Z,4.22
2022-11-17T22:44:37.809Z,4.97
2022-11-17T22:49:39.995Z,4.97
2022-11-17T22:54:41.993Z,5.85
2022-11-17T22:59:44.163Z,5.70
2022-11-17T23:04:46.182Z,6.57
2022-11-17T23:09:48.210Z,4.30
2022-11-17T23:14:50.300Z,5.50
2022-11-17T23:19:52.360Z,5.80
2022-11-17T23:24:54.492Z,5.45
2022-11-17T23:29:56.547Z,5.22
2022-11-17T23:34:58.700Z,4.97
2022-11-17T23:40:00.670Z,5.35
2022-11-17T23:45:02.808Z,5.18
2022-11-17T23:50:06.441Z,5.32
2022-11-17T23:55:08.697Z,4.38
